sensor_id;sensor_type;location;lat;lon;timestamp;P1;durP1;ratioP1;P2;durP2;ratioP2
3149;SDS011;32503;47.748;8.960;2023-01-04T00:01:54;18.50;;;7.77;;
3149;SDS011;32503;47.748;8.960;2023-01-04T00:04:22;19.10;;;8.20;;
3149;SDS011;32503;47.748;8.960;2023-01-04T00:06:49;13.33;;;7.13;;
3149;SDS011;32503;47.748;8.960;2023-01-04T00:09:16;22.63;;;7.80;;
3149;SDS011;32503;47.748;8.960;2023-01-04T00:11:43;16.23;;;7.10;;
3149;SDS011;32503;47.748;8.960;2023-01-04T00:14:11;13.57;;;7.67;;
3149;SDS011;32503;47.748;8.960;2023-01-04T00:16:41;17.10;;;8.40;;
3149;SDS011;32503;47.748;8.960;2023-01-04T00:19:09;23.20;;;7.90;;
3149;SDS011;32503;47.748;8.960;2023-01-04T00:21:38;18.50;;;8.60;;
3149;SDS011;32503;47.748;8.960;2023-01-04T00:24:05;18.67;;;8.23;;
3149;SDS011;32503;47.748;8.960;2023-01-04T00:26:34;17.13;;;9.60;;
3149;SDS011;32503;47.748;8.960;2023-01-04T00:29:02;22.10;;;9.57;;
3149;SDS011;32503;47.748;8.960;2023-01-04T00:31:31;18.67;;;8.90;;
3149;SDS011;32503;47.748;8.960;2023-01-04T00:34:01;18.30;;;8.93;;
3149;SDS011;32503;47.748;8.960;2023-01-04T00:36:29;21.10;;;9.80;;
3149;SDS011;32503;47.748;8.960;2023-01-04T00:38:59;23.37;;;10.33;;
3149;SDS011;32503;47.748;8.960;2023-01-04T00:41:34;17.17;;;9.40;;
3149;SDS011;32503;47.748;8.960;2023-01-04T00:44:03;16.73;;;7.90;;
3149;SDS011;32503;47.748;8.960;2023-01-04T00:46:32;16.87;;;8.17;;
3149;SDS011;32503;47.748;8.960;2023-01-04T00:49:01;18.80;;;7.60;;
3149;SDS011;32503;47.748;8.960;2023-01-04T00:51:29;17.40;;;8.40;;
3149;SDS011;32503;47.748;8.960;2023-01-04T00:54:00;14.90;;;8.00;;
3149;SDS011;32503;47.748;8.960;2023-01-04T00:56:29;20.00;;;9.67;;
3149;SDS011;32503;47.748;8.960;2023-01-04T00:58:57;17.80;;;8.03;;
3149;SDS011;32503;47.748;8.960;2023-01-04T01:01:27;16.10;;;8.87;;
3149;SDS011;32503;47.748;8.960;2023-01-04T01:03:57;17.90;;;8.70;;
3149;SDS011;32503;47.748;8.960;2023-01-04T01:06:27;17.00;;;7.83;;
3149;SDS011;32503;47.748;8.960;2023-01-04T01:08:55;18.67;;;10.23;;
3149;SDS011;32503;47.748;8.960;2023-01-04T01:11:24;24.17;;;8.60;;
3149;SDS011;32503;47.748;8.960;2023-01-04T01:13:52;15.17;;;8.50;;
3149;SDS011;32503;47.748;8.960;2023-01-04T01:16:20;18.47;;;9.37;;
3149;SDS011;32503;47.748;8.960;2023-01-04T01:18:48;17.50;;;8.70;;
3149;SDS011;32503;47.748;8.960;2023-01-04T01:21:16;15.67;;;8.10;;
3149;SDS011;32503;47.748;8.960;2023-01-04T01:23:45;16.50;;;8.07;;
3149;SDS011;32503;47.748;8.960;2023-01-04T01:26:14;14.10;;;7.30;;
3149;SDS011;32503;47.748;8.960;2023-01-04T01:28:48;14.90;;;8.03;;
3149;SDS011;32503;47.748;8.960;2023-01-04T01:31:16;16.43;;;8.13;;
3149;SDS011;32503;47.748;8.960;2023-01-04T01:33:46;18.10;;;8.90;;
3149;SDS011;32503;47.748;8.960;2023-01-04T01:36:16;20.10;;;9.30;;
3149;SDS011;32503;47.748;8.960;2023-01-04T01:38:45;19.43;;;8.23;;
3149;SDS011;32503;47.748;8.960;2023-01-04T01:41:15;20.53;;;9.60;;
3149;SDS011;32503;47.748;8.960;2023-01-04T01:43:51;17.70;;;8.60;;
3149;SDS011;32503;47.748;8.960;2023-01-04T01:46:22;14.20;;;7.80;;
3149;SDS011;32503;47.748;8.960;2023-01-04T01:48:55;15.20;;;7.70;;
3149;SDS011;32503;47.748;8.960;2023-01-04T01:51:27;19.60;;;9.17;;
3149;SDS011;32503;47.748;8.960;2023-01-04T01:53:56;14.43;;;7.90;;
3149;SDS011;32503;47.748;8.960;2023-01-04T01:56:30;17.33;;;8.40;;
3149;SDS011;32503;47.748;8.960;2023-01-04T01:59:03;17.27;;;8.07;;
3149;SDS011;32503;47.748;8.960;2023-01-04T02:01:31;15.63;;;7.60;;
3149;SDS011;32503;47.748;8.960;2023-01-04T02:03:59;13.53;;;7.73;;
3149;SDS011;32503;47.748;8.960;2023-01-04T02:06:28;14.10;;;7.17;;
3149;SDS011;32503;47.748;8.960;2023-01-04T02:09:00;16.60;;;8.30;;
3149;SDS011;32503;47.748;8.960;2023-01-04T02:11:28;12.73;;;8.00;;
3149;SDS011;32503;47.748;8.960;2023-01-04T02:13:55;11.40;;;6.90;;
3149;SDS011;32503;47.748;8.960;2023-01-04T02:16:46;22.07;;;9.50;;
3149;SDS011;32503;47.748;8.960;2023-01-04T02:19:39;13.97;;;8.00;;
3149;SDS011;32503;47.748;8.960;2023-01-04T02:25:53;18.07;;;9.50;;
3149;SDS011;32503;47.748;8.960;2023-01-04T02:29:04;12.57;;;7.40;;
3149;SDS011;32503;47.748;8.960;2023-01-04T02:32:07;19.50;;;8.83;;
3149;SDS011;32503;47.748;8.960;2023-01-04T02:34:41;16.07;;;8.27;;
3149;SDS011;32503;47.748;8.960;2023-01-04T02:37:18;17.03;;;8.80;;
3149;SDS011;32503;47.748;8.960;2023-01-04T02:39:55;19.93;;;9.50;;
3149;SDS011;32503;47.748;8.960;2023-01-04T02:42:32;22.50;;;9.40;;
3149;SDS011;32503;47.748;8.960;2023-01-04T02:45:28;15.90;;;8.57;;
3149;SDS011;32503;47.748;8.960;2023-01-04T02:48:04;16.53;;;8.87;;
3149;SDS011;32503;47.748;8.960;2023-01-04T02:50:51;12.80;;;7.20;;
3149;SDS011;32503;47.748;8.960;2023-01-04T02:53:21;14.93;;;9.17;;
3149;SDS011;32503;47.748;8.960;2023-01-04T02:55:56;12.70;;;7.83;;
3149;SDS011;32503;47.748;8.960;2023-01-04T02:58:42;17.93;;;8.13;;
3149;SDS011;32503;47.748;8.960;2023-01-04T03:01:33;17.43;;;8.00;;
3149;SDS011;32503;47.748;8.960;2023-01-04T03:04:31;14.60;;;8.17;;
3149;SDS011;32503;47.748;8.960;2023-01-04T03:07:32;17.37;;;8.53;;
3149;SDS011;32503;47.748;8.960;2023-01-04T03:10:07;17.90;;;9.47;;
3149;SDS011;32503;47.748;8.960;2023-01-04T03:12:45;15.10;;;7.47;;
3149;SDS011;32503;47.748;8.960;2023-01-04T03:15:19;12.00;;;8.00;;
3149;SDS011;32503;47.748;8.960;2023-01-04T03:17:49;13.97;;;7.20;;
3149;SDS011;32503;47.748;8.960;2023-01-04T03:20:23;13.23;;;7.90;;
3149;SDS011;32503;47.748;8.960;2023-01-04T03:22:55;15.10;;;8.40;;
3149;SDS011;32503;47.748;8.960;2023-01-04T03:25:53;13.10;;;8.63;;
3149;SDS011;32503;47.748;8.960;2023-01-04T03:28:44;13.40;;;7.10;;
3149;SDS011;32503;47.748;8.960;2023-01-04T03:31:31;15.53;;;8.20;;
3149;SDS011;32503;47.748;8.960;2023-01-04T03:34:20;9.60;;;6.70;;
3149;SDS011;32503;47.748;8.960;2023-01-04T03:37:11;10.57;;;6.37;;
3149;SDS011;32503;47.748;8.960;2023-01-04T03:39:46;15.47;;;7.20;;
3149;SDS011;32503;47.748;8.960;2023-01-04T03:42:52;12.20;;;6.30;;
3149;SDS011;32503;47.748;8.960;2023-01-04T03:45:46;9.00;;;6.90;;
3149;SDS011;32503;47.748;8.960;2023-01-04T03:48:37;10.83;;;6.90;;
3149;SDS011;32503;47.748;8.960;2023-01-04T03:51:10;8.40;;;5.53;;
3149;SDS011;32503;47.748;8.960;2023-01-04T03:53:47;10.27;;;7.30;;
3149;SDS011;32503;47.748;8.960;2023-01-04T03:56:21;14.00;;;7.70;;
3149;SDS011;32503;47.748;8.960;2023-01-04T03:58:51;10.70;;;6.73;;
3149;SDS011;32503;47.748;8.960;2023-01-04T04:01:19;9.83;;;5.70;;
3149;SDS011;32503;47.748;8.960;2023-01-04T04:03:48;9.57;;;6.23;;
3149;SDS011;32503;47.748;8.960;2023-01-04T04:06:33;10.67;;;6.87;;
3149;SDS011;32503;47.748;8.960;2023-01-04T04:09:19;8.67;;;6.70;;
3149;SDS011;32503;47.748;8.960;2023-01-04T04:11:46;10.93;;;6.87;;
3149;SDS011;32503;47.748;8.960;2023-01-04T04:14:13;6.57;;;5.20;;
3149;SDS011;32503;47.748;8.960;2023-01-04T04:16:40;8.00;;;6.30;;
3149;SDS011;32503;47.748;8.960;2023-01-04T04:19:07;9.97;;;5.83;;
3149;SDS011;32503;47.748;8.960;2023-01-04T04:21:34;6.00;;;5.40;;
3149;SDS011;32503;47.748;8.960;2023-01-04T04:24:02;7.43;;;5.50;;
3149;SDS011;32503;47.748;8.960;2023-01-04T04:26:31;6.20;;;5.30;;
3149;SDS011;32503;47.748;8.960;2023-01-04T04:28:58;7.27;;;5.00;;
3149;SDS011;32503;47.748;8.960;2023-01-04T04:31:25;9.40;;;5.30;;
3149;SDS011;32503;47.748;8.960;2023-01-04T04:33:52;4.80;;;4.30;;
3149;SDS011;32503;47.748;8.960;2023-01-04T04:36:19;6.47;;;4.60;;
3149;SDS011;32503;47.748;8.960;2023-01-04T04:38:46;5.83;;;5.20;;
3149;SDS011;32503;47.748;8.960;2023-01-04T04:41:13;5.87;;;4.63;;
3149;SDS011;32503;47.748;8.960;2023-01-04T04:43:59;5.90;;;5.10;;
3149;SDS011;32503;47.748;8.960;2023-01-04T04:46:27;10.80;;;6.30;;
3149;SDS011;32503;47.748;8.960;2023-01-04T04:48:54;6.13;;;4.93;;
3149;SDS011;32503;47.748;8.960;2023-01-04T04:51:21;6.00;;;5.40;;
3149;SDS011;32503;47.748;8.960;2023-01-04T04:53:48;8.40;;;5.57;;
3149;SDS011;32503;47.748;8.960;2023-01-04T04:56:15;6.90;;;5.07;;
3149;SDS011;32503;47.748;8.960;2023-01-04T04:58:42;6.70;;;5.50;;
3149;SDS011;32503;47.748;8.960;2023-01-04T05:01:10;5.90;;;5.10;;
3149;SDS011;32503;47.748;8.960;2023-01-04T05:03:37;5.77;;;5.17;;
3149;SDS011;32503;47.748;8.960;2023-01-04T05:06:05;9.27;;;6.20;;
3149;SDS011;32503;47.748;8.960;2023-01-04T05:08:32;8.27;;;5.60;;
3149;SDS011;32503;47.748;8.960;2023-01-04T05:11:02;9.80;;;5.53;;
3149;SDS011;32503;47.748;8.960;2023-01-04T05:13:31;6.03;;;5.23;;
3149;SDS011;32503;47.748;8.960;2023-01-04T05:15:58;10.70;;;6.40;;
3149;SDS011;32503;47.748;8.960;2023-01-04T05:18:26;8.03;;;6.20;;
3149;SDS011;32503;47.748;8.960;2023-01-04T05:20:53;10.13;;;6.37;;
3149;SDS011;32503;47.748;8.960;2023-01-04T05:23:20;8.20;;;6.30;;
3149;SDS011;32503;47.748;8.960;2023-01-04T05:25:50;6.80;;;5.87;;
3149;SDS011;32503;47.748;8.960;2023-01-04T05:28:18;7.40;;;6.00;;
3149;SDS011;32503;47.748;8.960;2023-01-04T05:30:47;10.90;;;6.10;;
3149;SDS011;32503;47.748;8.960;2023-01-04T05:33:18;8.17;;;6.73;;
3149;SDS011;32503;47.748;8.960;2023-01-04T05:35:48;10.30;;;6.40;;
3149;SDS011;32503;47.748;8.960;2023-01-04T05:38:17;6.43;;;5.73;;
3149;SDS011;32503;47.748;8.960;2023-01-04T05:40:44;8.30;;;6.07;;
3149;SDS011;32503;47.748;8.960;2023-01-04T05:43:13;10.17;;;6.90;;
3149;SDS011;32503;47.748;8.960;2023-01-04T05:45:42;8.43;;;6.43;;
3149;SDS011;32503;47.748;8.960;2023-01-04T05:48:12;7.10;;;6.50;;
3149;SDS011;32503;47.748;8.960;2023-01-04T05:50:39;8.03;;;5.60;;
3149;SDS011;32503;47.748;8.960;2023-01-04T05:53:07;10.90;;;6.90;;
3149;SDS011;32503;47.748;8.960;2023-01-04T05:55:34;8.90;;;6.67;;
3149;SDS011;32503;47.748;8.960;2023-01-04T05:58:01;15.00;;;10.23;;
3149;SDS011;32503;47.748;8.960;2023-01-04T06:00:29;8.40;;;7.17;;
3149;SDS011;32503;47.748;8.960;2023-01-04T06:02:56;10.57;;;6.87;;
3149;SDS011;32503;47.748;8.960;2023-01-04T06:05:24;13.30;;;8.13;;
3149;SDS011;32503;47.748;8.960;2023-01-04T06:07:51;10.50;;;6.60;;
3149;SDS011;32503;47.748;8.960;2023-01-04T06:10:20;12.30;;;6.67;;
3149;SDS011;32503;47.748;8.960;2023-01-04T06:12:47;10.57;;;6.90;;
3149;SDS011;32503;47.748;8.960;2023-01-04T06:15:14;9.37;;;7.23;;
3149;SDS011;32503;47.748;8.960;2023-01-04T06:17:41;8.73;;;6.30;;
3149;SDS011;32503;47.748;8.960;2023-01-04T06:20:09;8.60;;;6.00;;
3149;SDS011;32503;47.748;8.960;2023-01-04T06:22:36;8.00;;;6.00;;
3149;SDS011;32503;47.748;8.960;2023-01-04T06:25:05;8.00;;;6.40;;
3149;SDS011;32503;47.748;8.960;2023-01-04T06:27:35;9.13;;;6.00;;
3149;SDS011;32503;47.748;8.960;2023-01-04T06:30:02;9.70;;;6.97;;
3149;SDS011;32503;47.748;8.960;2023-01-04T06:32:30;8.27;;;6.00;;
3149;SDS011;32503;47.748;8.960;2023-01-04T06:34:57;6.53;;;5.33;;
3149;SDS011;32503;47.748;8.960;2023-01-04T06:37:24;10.40;;;6.87;;
3149;SDS011;32503;47.748;8.960;2023-01-04T06:39:52;7.97;;;6.37;;
3149;SDS011;32503;47.748;8.960;2023-01-04T06:42:19;10.50;;;6.60;;
3149;SDS011;32503;47.748;8.960;2023-01-04T06:45:06;5.97;;;5.43;;
3149;SDS011;32503;47.748;8.960;2023-01-04T06:47:33;7.03;;;5.73;;
3149;SDS011;32503;47.748;8.960;2023-01-04T06:50:00;9.60;;;6.20;;
3149;SDS011;32503;47.748;8.960;2023-01-04T06:52:28;9.83;;;6.17;;
3149;SDS011;32503;47.748;8.960;2023-01-04T06:54:55;6.23;;;5.47;;
3149;SDS011;32503;47.748;8.960;2023-01-04T06:57:22;6.30;;;5.13;;
3149;SDS011;32503;47.748;8.960;2023-01-04T06:59:50;8.77;;;6.53;;
3149;SDS011;32503;47.748;8.960;2023-01-04T07:02:18;6.13;;;5.17;;
3149;SDS011;32503;47.748;8.960;2023-01-04T07:04:45;7.23;;;5.70;;
3149;SDS011;32503;47.748;8.960;2023-01-04T07:07:12;8.93;;;6.53;;
3149;SDS011;32503;47.748;8.960;2023-01-04T07:09:39;8.03;;;6.20;;
3149;SDS011;32503;47.748;8.960;2023-01-04T07:12:06;9.27;;;6.47;;
3149;SDS011;32503;47.748;8.960;2023-01-04T07:14:33;10.27;;;6.07;;
3149;SDS011;32503;47.748;8.960;2023-01-04T07:17:00;7.70;;;5.70;;
3149;SDS011;32503;47.748;8.960;2023-01-04T07:19:29;6.03;;;4.63;;
3149;SDS011;32503;47.748;8.960;2023-01-04T07:21:57;5.80;;;5.23;;
3149;SDS011;32503;47.748;8.960;2023-01-04T07:24:24;6.87;;;5.40;;
3149;SDS011;32503;47.748;8.960;2023-01-04T07:26:51;6.33;;;5.40;;
3149;SDS011;32503;47.748;8.960;2023-01-04T07:29:18;8.77;;;5.43;;
3149;SDS011;32503;47.748;8.960;2023-01-04T07:31:47;6.73;;;5.60;;
3149;SDS011;32503;47.748;8.960;2023-01-04T07:34:16;5.93;;;5.10;;
3149;SDS011;32503;47.748;8.960;2023-01-04T07:36:46;5.80;;;5.07;;
3149;SDS011;32503;47.748;8.960;2023-01-04T07:39:14;6.70;;;5.10;;
3149;SDS011;32503;47.748;8.960;2023-01-04T07:41:43;8.37;;;6.00;;
3149;SDS011;32503;47.748;8.960;2023-01-04T07:44:11;6.33;;;5.20;;
3149;SDS011;32503;47.748;8.960;2023-01-04T07:46:39;7.47;;;5.97;;
3149;SDS011;32503;47.748;8.960;2023-01-04T07:49:08;8.33;;;5.50;;
3149;SDS011;32503;47.748;8.960;2023-01-04T07:51:38;9.27;;;6.70;;
3149;SDS011;32503;47.748;8.960;2023-01-04T07:54:06;6.20;;;5.10;;
3149;SDS011;32503;47.748;8.960;2023-01-04T07:56:34;6.17;;;5.33;;
3149;SDS011;32503;47.748;8.960;2023-01-04T07:59:03;7.67;;;5.90;;
3149;SDS011;32503;47.748;8.960;2023-01-04T08:01:31;6.73;;;5.47;;
3149;SDS011;32503;47.748;8.960;2023-01-04T08:04:02;7.93;;;5.50;;
3149;SDS011;32503;47.748;8.960;2023-01-04T08:06:29;6.70;;;4.90;;
3149;SDS011;32503;47.748;8.960;2023-01-04T08:08:57;6.63;;;5.70;;
3149;SDS011;32503;47.748;8.960;2023-01-04T08:11:26;6.60;;;5.27;;
3149;SDS011;32503;47.748;8.960;2023-01-04T08:13:53;6.93;;;6.23;;
3149;SDS011;32503;47.748;8.960;2023-01-04T08:16:21;6.10;;;5.50;;
3149;SDS011;32503;47.748;8.960;2023-01-04T08:18:51;8.23;;;6.17;;
3149;SDS011;32503;47.748;8.960;2023-01-04T08:21:20;9.00;;;6.60;;
3149;SDS011;32503;47.748;8.960;2023-01-04T08:23:47;8.93;;;6.27;;
3149;SDS011;32503;47.748;8.960;2023-01-04T08:26:14;12.17;;;7.87;;
3149;SDS011;32503;47.748;8.960;2023-01-04T08:28:43;8.93;;;8.10;;
3149;SDS011;32503;47.748;8.960;2023-01-04T08:31:12;13.70;;;6.60;;
3149;SDS011;32503;47.748;8.960;2023-01-04T08:33:42;8.93;;;6.57;;
3149;SDS011;32503;47.748;8.960;2023-01-04T08:36:10;9.13;;;6.20;;
3149;SDS011;32503;47.748;8.960;2023-01-04T08:38:43;7.40;;;6.03;;
3149;SDS011;32503;47.748;8.960;2023-01-04T08:41:11;7.50;;;5.87;;
3149;SDS011;32503;47.748;8.960;2023-01-04T08:43:39;6.53;;;5.80;;
3149;SDS011;32503;47.748;8.960;2023-01-04T08:46:08;6.20;;;5.60;;
3149;SDS011;32503;47.748;8.960;2023-01-04T08:48:37;5.67;;;5.10;;
3149;SDS011;32503;47.748;8.960;2023-01-04T08:51:05;7.60;;;5.50;;
3149;SDS011;32503;47.748;8.960;2023-01-04T08:53:34;9.63;;;5.70;;
3149;SDS011;32503;47.748;8.960;2023-01-04T08:56:02;8.90;;;5.77;;
3149;SDS011;32503;47.748;8.960;2023-01-04T08:58:31;8.27;;;5.00;;
3149;SDS011;32503;47.748;8.960;2023-01-04T09:00:59;5.67;;;5.20;;
3149;SDS011;32503;47.748;8.960;2023-01-04T09:03:29;5.00;;;4.60;;
3149;SDS011;32503;47.748;8.960;2023-01-04T09:06:00;5.90;;;5.10;;
3149;SDS011;32503;47.748;8.960;2023-01-04T09:08:29;7.80;;;5.07;;
3149;SDS011;32503;47.748;8.960;2023-01-04T09:10:57;5.77;;;5.17;;
3149;SDS011;32503;47.748;8.960;2023-01-04T09:13:29;8.13;;;5.30;;
3149;SDS011;32503;47.748;8.960;2023-01-04T09:15:58;5.13;;;4.57;;
3149;SDS011;32503;47.748;8.960;2023-01-04T09:18:26;6.77;;;5.50;;
3149;SDS011;32503;47.748;8.960;2023-01-04T09:20:55;5.10;;;4.60;;
3149;SDS011;32503;47.748;8.960;2023-01-04T09:23:23;8.60;;;5.70;;
3149;SDS011;32503;47.748;8.960;2023-01-04T09:25:50;6.67;;;4.60;;
3149;SDS011;32503;47.748;8.960;2023-01-04T09:28:17;7.70;;;5.50;;
3149;SDS011;32503;47.748;8.960;2023-01-04T09:30:44;6.10;;;5.00;;
3149;SDS011;32503;47.748;8.960;2023-01-04T09:33:11;5.40;;;4.90;;
3149;SDS011;32503;47.748;8.960;2023-01-04T09:35:39;5.30;;;4.57;;
3149;SDS011;32503;47.748;8.960;2023-01-04T09:38:06;6.17;;;5.53;;
3149;SDS011;32503;47.748;8.960;2023-01-04T09:40:36;5.50;;;4.30;;
3149;SDS011;32503;47.748;8.960;2023-01-04T09:43:16;4.50;;;4.10;;
3149;SDS011;32503;47.748;8.960;2023-01-04T09:45:46;6.20;;;4.73;;
3149;SDS011;32503;47.748;8.960;2023-01-04T09:48:19;5.40;;;4.50;;
3149;SDS011;32503;47.748;8.960;2023-01-04T09:50:51;5.67;;;5.13;;
3149;SDS011;32503;47.748;8.960;2023-01-04T09:53:23;7.40;;;4.70;;
3149;SDS011;32503;47.748;8.960;2023-01-04T09:55:58;5.00;;;4.50;;
3149;SDS011;32503;47.748;8.960;2023-01-04T09:58:34;7.13;;;5.00;;
3149;SDS011;32503;47.748;8.960;2023-01-04T10:01:05;4.50;;;4.20;;
3149;SDS011;32503;47.748;8.960;2023-01-04T10:03:39;5.40;;;4.80;;
3149;SDS011;32503;47.748;8.960;2023-01-04T10:06:16;6.20;;;5.00;;
3149;SDS011;32503;47.748;8.960;2023-01-04T10:08:44;5.47;;;4.33;;
3149;SDS011;32503;47.748;8.960;2023-01-04T10:14:18;5.13;;;4.70;;
3149;SDS011;32503;47.748;8.960;2023-01-04T10:17:02;6.20;;;4.30;;
3149;SDS011;32503;47.748;8.960;2023-01-04T10:19:55;5.67;;;4.30;;
3149;SDS011;32503;47.748;8.960;2023-01-04T10:22:37;7.50;;;5.47;;
3149;SDS011;32503;47.748;8.960;2023-01-04T10:25:19;5.53;;;4.20;;
3149;SDS011;32503;47.748;8.960;2023-01-04T10:27:57;6.03;;;4.80;;
3149;SDS011;32503;47.748;8.960;2023-01-04T10:30:43;5.37;;;4.57;;
3149;SDS011;32503;47.748;8.960;2023-01-04T10:33:20;6.20;;;4.60;;
3149;SDS011;32503;47.748;8.960;2023-01-04T10:35:57;5.47;;;4.23;;
3149;SDS011;32503;47.748;8.960;2023-01-04T10:38:27;5.57;;;4.73;;
3149;SDS011;32503;47.748;8.960;2023-01-04T10:41:02;6.27;;;4.63;;
3149;SDS011;32503;47.748;8.960;2023-01-04T10:43:37;4.37;;;3.97;;
3149;SDS011;32503;47.748;8.960;2023-01-04T10:46:13;8.23;;;5.57;;
3149;SDS011;32503;47.748;8.960;2023-01-04T10:48:47;6.03;;;5.20;;
3149;SDS011;32503;47.748;8.960;2023-01-04T10:51:19;6.67;;;5.97;;
3149;SDS011;32503;47.748;8.960;2023-01-04T10:53:57;4.63;;;4.20;;
3149;SDS011;32503;47.748;8.960;2023-01-04T10:56:32;6.47;;;4.90;;
3149;SDS011;32503;47.748;8.960;2023-01-04T10:59:06;4.50;;;4.07;;
3149;SDS011;32503;47.748;8.960;2023-01-04T11:01:41;8.80;;;5.30;;
3149;SDS011;32503;47.748;8.960;2023-01-04T11:04:15;4.27;;;3.87;;
3149;SDS011;32503;47.748;8.960;2023-01-04T11:06:51;4.10;;;3.80;;
3149;SDS011;32503;47.748;8.960;2023-01-04T11:09:24;6.57;;;5.50;;
3149;SDS011;32503;47.748;8.960;2023-01-04T11:11:58;5.20;;;4.70;;
3149;SDS011;32503;47.748;8.960;2023-01-04T11:14:27;9.83;;;5.40;;
3149;SDS011;32503;47.748;8.960;2023-01-04T11:16:55;5.97;;;4.87;;
3149;SDS011;32503;47.748;8.960;2023-01-04T11:19:26;7.77;;;5.43;;
3149;SDS011;32503;47.748;8.960;2023-01-04T11:21:55;7.03;;;5.17;;
3149;SDS011;32503;47.748;8.960;2023-01-04T11:24:29;6.33;;;5.37;;
3149;SDS011;32503;47.748;8.960;2023-01-04T11:27:02;8.63;;;5.83;;
3149;SDS011;32503;47.748;8.960;2023-01-04T11:29:34;5.17;;;4.53;;
3149;SDS011;32503;47.748;8.960;2023-01-04T11:32:10;8.80;;;5.37;;
3149;SDS011;32503;47.748;8.960;2023-01-04T11:34:44;6.03;;;4.73;;
3149;SDS011;32503;47.748;8.960;2023-01-04T11:37:25;5.30;;;4.80;;
3149;SDS011;32503;47.748;8.960;2023-01-04T11:40:11;6.60;;;5.43;;
3149;SDS011;32503;47.748;8.960;2023-01-04T11:42:51;6.47;;;5.33;;
3149;SDS011;32503;47.748;8.960;2023-01-04T11:45:39;6.83;;;5.50;;
3149;SDS011;32503;47.748;8.960;2023-01-04T11:48:18;8.67;;;5.50;;
3149;SDS011;32503;47.748;8.960;2023-01-04T11:50:59;12.70;;;8.17;;
3149;SDS011;32503;47.748;8.960;2023-01-04T11:53:28;5.80;;;5.27;;
3149;SDS011;32503;47.748;8.960;2023-01-04T11:56:12;7.83;;;6.27;;
3149;SDS011;32503;47.748;8.960;2023-01-04T11:58:43;8.23;;;5.93;;
3149;SDS011;32503;47.748;8.960;2023-01-04T12:01:35;5.10;;;4.50;;
3149;SDS011;32503;47.748;8.960;2023-01-04T12:04:07;6.83;;;4.93;;
3149;SDS011;32503;47.748;8.960;2023-01-04T12:06:41;7.73;;;5.07;;
3149;SDS011;32503;47.748;8.960;2023-01-04T12:09:16;5.47;;;4.97;;
3149;SDS011;32503;47.748;8.960;2023-01-04T12:11:46;9.27;;;6.13;;
3149;SDS011;32503;47.748;8.960;2023-01-04T12:14:20;5.50;;;5.00;;
3149;SDS011;32503;47.748;8.960;2023-01-04T12:16:52;5.40;;;4.70;;
3149;SDS011;32503;47.748;8.960;2023-01-04T12:19:26;5.30;;;4.80;;
3149;SDS011;32503;47.748;8.960;2023-01-04T12:21:55;6.57;;;5.43;;
3149;SDS011;32503;47.748;8.960;2023-01-04T12:24:26;6.70;;;5.23;;
3149;SDS011;32503;47.748;8.960;2023-01-04T12:26:58;8.50;;;5.40;;
3149;SDS011;32503;47.748;8.960;2023-01-04T12:29:38;6.20;;;5.00;;
3149;SDS011;32503;47.748;8.960;2023-01-04T12:32:38;5.77;;;4.60;;
3149;SDS011;32503;47.748;8.960;2023-01-04T12:47:46;4.47;;;4.00;;
3149;SDS011;32503;47.748;8.960;2023-01-04T12:53:49;5.97;;;3.90;;
3149;SDS011;32503;47.748;8.960;2023-01-04T12:56:19;3.50;;;3.20;;
3149;SDS011;32503;47.748;8.960;2023-01-04T13:01:39;4.50;;;3.60;;
3149;SDS011;32503;47.748;8.960;2023-01-04T13:04:48;4.50;;;3.90;;
3149;SDS011;32503;47.748;8.960;2023-01-04T13:07:18;3.07;;;2.87;;
3149;SDS011;32503;47.748;8.960;2023-01-04T13:09:54;3.07;;;2.87;;
3149;SDS011;32503;47.748;8.960;2023-01-04T13:12:32;3.23;;;2.93;;
3149;SDS011;32503;47.748;8.960;2023-01-04T13:15:29;3.40;;;2.90;;
3149;SDS011;32503;47.748;8.960;2023-01-04T13:18:23;4.00;;;2.93;;
3149;SDS011;32503;47.748;8.960;2023-01-04T13:21:01;4.00;;;3.00;;
3149;SDS011;32503;47.748;8.960;2023-01-04T13:23:35;9.43;;;4.00;;
3149;SDS011;32503;47.748;8.960;2023-01-04T13:29:04;7.23;;;4.53;;
3149;SDS011;32503;47.748;8.960;2023-01-04T13:31:43;9.00;;;3.53;;
3149;SDS011;32503;47.748;8.960;2023-01-04T13:34:18;4.93;;;3.60;;
3149;SDS011;32503;47.748;8.960;2023-01-04T13:36:53;3.70;;;3.30;;
3149;SDS011;32503;47.748;8.960;2023-01-04T13:39:46;6.50;;;3.90;;
3149;SDS011;32503;47.748;8.960;2023-01-04T13:42:19;4.73;;;3.70;;
3149;SDS011;32503;47.748;8.960;2023-01-04T13:44:58;3.83;;;3.53;;
3149;SDS011;32503;47.748;8.960;2023-01-04T13:47:47;6.57;;;4.30;;
3149;SDS011;32503;47.748;8.960;2023-01-04T13:50:21;5.40;;;3.90;;
3149;SDS011;32503;47.748;8.960;2023-01-04T13:52:55;5.53;;;3.63;;
3149;SDS011;32503;47.748;8.960;2023-01-04T13:55:23;4.07;;;3.67;;
3149;SDS011;32503;47.748;8.960;2023-01-04T13:57:53;7.57;;;3.40;;
3149;SDS011;32503;47.748;8.960;2023-01-04T14:00:22;6.10;;;5.17;;
3149;SDS011;32503;47.748;8.960;2023-01-04T14:05:50;4.23;;;3.67;;
3149;SDS011;32503;47.748;8.960;2023-01-04T14:08:20;5.33;;;4.93;;
3149;SDS011;32503;47.748;8.960;2023-01-04T14:10:55;4.17;;;3.17;;
3149;SDS011;32503;47.748;8.960;2023-01-04T14:13:22;6.30;;;3.73;;
3149;SDS011;32503;47.748;8.960;2023-01-04T14:16:02;5.30;;;4.40;;
3149;SDS011;32503;47.748;8.960;2023-01-04T14:18:32;4.90;;;4.00;;
3149;SDS011;32503;47.748;8.960;2023-01-04T14:20:59;3.77;;;3.37;;
3149;SDS011;32503;47.748;8.960;2023-01-04T14:23:27;4.83;;;2.63;;
3149;SDS011;32503;47.748;8.960;2023-01-04T14:25:59;3.97;;;2.87;;
3149;SDS011;32503;47.748;8.960;2023-01-04T14:28:36;3.20;;;3.00;;
3149;SDS011;32503;47.748;8.960;2023-01-04T14:31:13;3.87;;;3.10;;
3149;SDS011;32503;47.748;8.960;2023-01-04T14:33:48;6.63;;;4.27;;
3149;SDS011;32503;47.748;8.960;2023-01-04T14:36:18;4.00;;;3.70;;
3149;SDS011;32503;47.748;8.960;2023-01-04T14:38:58;3.60;;;3.30;;
3149;SDS011;32503;47.748;8.960;2023-01-04T14:41:54;3.57;;;3.27;;
3149;SDS011;32503;47.748;8.960;2023-01-04T14:44:24;3.50;;;3.13;;
3149;SDS011;32503;47.748;8.960;2023-01-04T14:46:55;4.33;;;3.10;;
3149;SDS011;32503;47.748;8.960;2023-01-04T14:49:25;4.27;;;3.10;;
3149;SDS011;32503;47.748;8.960;2023-01-04T14:51:54;3.33;;;3.13;;
3149;SDS011;32503;47.748;8.960;2023-01-04T14:54:23;3.87;;;3.57;;
3149;SDS011;32503;47.748;8.960;2023-01-04T14:56:53;4.07;;;3.17;;
3149;SDS011;32503;47.748;8.960;2023-01-04T14:59:22;4.40;;;3.27;;
3149;SDS011;32503;47.748;8.960;2023-01-04T15:01:50;3.00;;;2.70;;
3149;SDS011;32503;47.748;8.960;2023-01-04T15:04:18;5.13;;;4.13;;
3149;SDS011;32503;47.748;8.960;2023-01-04T15:06:48;9.53;;;3.10;;
3149;SDS011;32503;47.748;8.960;2023-01-04T15:09:17;3.37;;;3.00;;
3149;SDS011;32503;47.748;8.960;2023-01-04T15:11:44;9.43;;;5.00;;
3149;SDS011;32503;47.748;8.960;2023-01-04T15:14:11;3.77;;;3.47;;
3149;SDS011;32503;47.748;8.960;2023-01-04T15:16:38;5.97;;;3.30;;
3149;SDS011;32503;47.748;8.960;2023-01-04T15:19:05;3.13;;;2.80;;
3149;SDS011;32503;47.748;8.960;2023-01-04T15:21:33;4.30;;;3.80;;
3149;SDS011;32503;47.748;8.960;2023-01-04T15:24:01;3.13;;;2.80;;
3149;SDS011;32503;47.748;8.960;2023-01-04T15:26:29;3.87;;;2.77;;
3149;SDS011;32503;47.748;8.960;2023-01-04T15:28:56;3.90;;;3.43;;
3149;SDS011;32503;47.748;8.960;2023-01-04T15:31:23;4.33;;;2.97;;
3149;SDS011;32503;47.748;8.960;2023-01-04T15:33:50;3.07;;;2.10;;
3149;SDS011;32503;47.748;8.960;2023-01-04T15:36:17;3.27;;;2.90;;
3149;SDS011;32503;47.748;8.960;2023-01-04T15:38:44;5.70;;;4.07;;
3149;SDS011;32503;47.748;8.960;2023-01-04T15:41:14;2.30;;;1.97;;
3149;SDS011;32503;47.748;8.960;2023-01-04T15:43:56;3.40;;;3.10;;
3149;SDS011;32503;47.748;8.960;2023-01-04T15:46:23;4.37;;;2.40;;
3149;SDS011;32503;47.748;8.960;2023-01-04T15:48:51;3.53;;;2.93;;
3149;SDS011;32503;47.748;8.960;2023-01-04T15:51:18;2.90;;;2.70;;
3149;SDS011;32503;47.748;8.960;2023-01-04T15:53:45;3.83;;;3.50;;
3149;SDS011;32503;47.748;8.960;2023-01-04T15:56:18;3.00;;;2.80;;
3149;SDS011;32503;47.748;8.960;2023-01-04T15:58:46;4.83;;;3.20;;
3149;SDS011;32503;47.748;8.960;2023-01-04T16:01:18;3.50;;;3.23;;